Gibsonton, Florida
Current Conditions -  °F | °C
As of 9:58 PM on Wednesday 26 Nov 2014 (Local Time) from KMCF Reporting Station
Clear Clear  
Wind Chill:   Ceiling: Unl
Heat Index:   Visibility: 10mi
Dew Point:   Wind: 5mph
Humidity: 81%   Direction: 30°NNE
Pressure: 30.23"   Gusts: NA
Location:  27.85°N, 82.38°W
Report Text: KMCF 270258Z AUTO 03004KT 10SM CLR 09/06 A3023 RMK AO2 SLP240 T00890058 51007
Loading
Personal Weather Stations






























Interactive Weather Map New forecast layout! Learn more

10-Day Weather Forecast

Advertisements
Track Severe Weather on mobile